createdAt,value
2019-04-06T00:02:05.631Z,85.60
2019-04-06T00:04:32.141Z,85.50
2019-04-06T00:06:58.502Z,85.60
2019-04-06T00:09:25.128Z,85.40
2019-04-06T00:11:51.599Z,85.50
2019-04-06T00:14:17.963Z,85.50
2019-04-06T00:16:44.361Z,85.50
2019-04-06T00:19:10.719Z,85.40
2019-04-06T00:21:37.201Z,86.00
2019-04-06T00:24:03.566Z,85.50
2019-04-06T00:26:29.995Z,85.80
2019-04-06T00:28:57.059Z,85.70
2019-04-06T00:31:40.695Z,85.70
2019-04-06T00:34:07.249Z,85.80
2019-04-06T00:36:33.869Z,85.90
2019-04-06T00:39:00.275Z,86.40
2019-04-06T00:41:26.667Z,86.50
2019-04-06T00:43:53.229Z,86.60
2019-04-06T00:46:19.595Z,86.90
2019-04-06T00:48:45.983Z,86.90
2019-04-06T00:51:12.369Z,87.10
2019-04-06T00:53:38.725Z,87.20
2019-04-06T00:56:05.148Z,87.80
2019-04-06T00:58:31.637Z,88.30
2019-04-06T01:00:58.193Z,89.20
2019-04-06T01:03:24.900Z,88.50
2019-04-06T01:05:51.392Z,88.40
2019-04-06T01:08:19.481Z,88.60
2019-04-06T01:10:45.967Z,88.60
2019-04-06T01:13:32.253Z,88.90
2019-04-06T01:15:58.731Z,88.90
2019-04-06T01:18:25.431Z,89.50
2019-04-06T01:20:51.856Z,89.40
2019-04-06T01:23:18.240Z,89.80
2019-04-06T01:25:44.650Z,89.30
2019-04-06T01:28:11.454Z,89.30
2019-04-06T01:30:37.813Z,89.30
2019-04-06T01:33:04.204Z,89.30
2019-04-06T01:35:31.834Z,89.30
2019-04-06T01:37:58.235Z,89.60
2019-04-06T01:40:24.685Z,89.30
2019-04-06T01:42:51.072Z,89.30
2019-04-06T01:45:17.467Z,89.30
2019-04-06T01:47:43.917Z,89.70
2019-04-06T01:50:10.425Z,89.30
2019-04-06T01:52:36.840Z,90.00
2019-04-06T01:55:04.094Z,89.60
2019-04-06T01:57:30.469Z,89.70
2019-04-06T01:59:57.061Z,89.90
2019-04-06T02:02:31.538Z,90.40
2019-04-06T02:04:58.063Z,90.40
2019-04-06T02:07:24.941Z,90.10
2019-04-06T02:09:51.766Z,90.00
2019-04-06T02:12:18.246Z,90.10
2019-04-06T02:14:44.718Z,90.00
2019-04-06T02:17:11.114Z,90.40
2019-04-06T02:19:37.517Z,90.00
2019-04-06T02:22:03.885Z,90.40
2019-04-06T02:24:30.301Z,89.80
2019-04-06T02:26:56.686Z,89.70
2019-04-06T02:29:23.271Z,90.00
2019-04-06T02:31:54.683Z,90.40
2019-04-06T02:34:32.454Z,89.90
2019-04-06T02:37:19.070Z,90.00
2019-04-06T02:40:02.705Z,90.20
2019-04-06T02:42:37.056Z,90.20
2019-04-06T02:45:04.010Z,90.40
2019-04-06T02:47:30.609Z,90.90
2019-04-06T02:49:57.203Z,90.60
2019-04-06T02:52:23.927Z,91.10
2019-04-06T02:54:50.814Z,91.10
2019-04-06T02:57:17.218Z,90.90
2019-04-06T02:59:45.891Z,91.80
2019-04-06T03:02:12.362Z,91.30
2019-04-06T03:04:38.783Z,91.30
2019-04-06T03:07:05.644Z,91.10
2019-04-06T03:09:32.154Z,91.30
2019-04-06T03:11:58.688Z,91.10
2019-04-06T03:14:25.164Z,91.10
2019-04-06T03:16:51.607Z,91.30
2019-04-06T03:19:17.987Z,91.80
2019-04-06T03:21:44.474Z,91.30
2019-04-06T03:24:10.889Z,91.40
2019-04-06T03:26:37.888Z,91.60
2019-04-06T03:29:04.438Z,91.60
2019-04-06T03:31:30.949Z,91.30
2019-04-06T03:33:57.784Z,91.10
2019-04-06T03:36:24.323Z,91.10
2019-04-06T03:38:50.688Z,91.30
2019-04-06T03:41:17.113Z,91.60
2019-04-06T03:43:43.472Z,91.30
2019-04-06T03:46:09.887Z,91.30
2019-04-06T03:48:36.306Z,91.30
2019-04-06T03:51:02.786Z,91.10
2019-04-06T03:53:29.267Z,91.30
2019-04-06T03:55:55.847Z,92.00
2019-04-06T03:58:22.240Z,91.10
2019-04-06T04:00:48.604Z,91.10
2019-04-06T04:03:14.996Z,91.30
2019-04-06T04:05:41.377Z,91.30
2019-04-06T04:08:07.741Z,91.60
2019-04-06T04:10:35.124Z,91.30
2019-04-06T04:13:01.567Z,91.50
2019-04-06T04:15:29.279Z,91.30
2019-04-06T04:17:55.936Z,91.60
2019-04-06T04:20:22.423Z,92.10
2019-04-06T04:22:48.780Z,91.30
2019-04-06T04:25:15.255Z,91.80
2019-04-06T04:27:41.699Z,91.50
2019-04-06T04:30:08.256Z,91.50
2019-04-06T04:32:34.691Z,91.50
2019-04-06T04:35:01.099Z,91.40
2019-04-06T04:37:27.525Z,91.20
2019-04-06T04:39:53.949Z,91.80
2019-04-06T04:42:20.436Z,92.00
2019-04-06T04:44:46.970Z,91.80
2019-04-06T04:47:13.486Z,91.50
2019-04-06T04:49:39.865Z,91.50
2019-04-06T04:52:06.576Z,91.60
2019-04-06T04:54:33.036Z,91.50
2019-04-06T04:56:59.418Z,91.30
2019-04-06T04:59:25.807Z,91.10
2019-04-06T05:01:52.189Z,91.10
2019-04-06T05:04:18.567Z,91.20
2019-04-06T05:06:45.456Z,90.70
2019-04-06T05:09:11.886Z,90.60
2019-04-06T05:11:39.418Z,90.40
2019-04-06T05:14:43.314Z,90.60
2019-04-06T05:17:09.836Z,90.20
2019-04-06T05:19:36.200Z,90.00
2019-04-06T05:22:02.555Z,90.10
2019-04-06T05:24:28.931Z,90.00
2019-04-06T05:26:56.443Z,90.00
2019-04-06T05:29:22.910Z,89.60
2019-04-06T05:31:49.386Z,89.50
2019-04-06T05:34:15.851Z,89.80
2019-04-06T05:36:42.270Z,89.00
2019-04-06T05:39:09.821Z,89.60
2019-04-06T05:41:36.315Z,88.90
2019-04-06T05:44:02.788Z,89.10
2019-04-06T05:46:29.276Z,88.60
2019-04-06T05:48:55.809Z,88.90
2019-04-06T05:51:22.180Z,88.60
2019-04-06T05:53:48.661Z,88.40
2019-04-06T05:56:15.039Z,88.30
2019-04-06T05:58:41.478Z,88.20
2019-04-06T06:01:10.230Z,88.20
2019-04-06T06:03:40.015Z,87.90
2019-04-06T06:06:04.659Z,87.60
2019-04-06T06:08:31.163Z,88.40
2019-04-06T06:10:57.658Z,87.50
2019-04-06T06:13:24.189Z,87.30
2019-04-06T06:15:50.613Z,87.00
2019-04-06T06:18:25.631Z,86.80
2019-04-06T06:20:45.635Z,86.80
2019-04-06T06:23:12.237Z,85.90
2019-04-06T06:25:39.111Z,85.30
2019-04-06T06:28:14.685Z,85.30
2019-04-06T06:30:34.128Z,84.60
2019-04-06T06:33:00.808Z,84.40
2019-04-06T06:35:27.513Z,84.00
2019-04-06T06:37:53.894Z,84.20
2019-04-06T06:40:20.416Z,83.00
2019-04-06T06:42:47.792Z,82.30
2019-04-06T06:45:14.243Z,81.90
2019-04-06T06:47:41.054Z,82.00
2019-04-06T06:50:07.736Z,82.00
2019-04-06T06:52:34.231Z,82.00
2019-04-06T06:55:00.761Z,82.50
2019-04-06T06:57:27.166Z,82.50
2019-04-06T06:59:53.522Z,82.30
2019-04-06T07:02:19.917Z,82.30
2019-04-06T07:04:47.411Z,82.70
2019-04-06T07:07:13.969Z,83.20
2019-04-06T07:09:40.592Z,83.00
2019-04-06T07:12:07.069Z,82.60
2019-04-06T07:14:33.816Z,82.90
2019-04-06T07:17:04.216Z,82.70
2019-04-06T07:19:30.851Z,82.30
2019-04-06T07:21:57.231Z,82.30
2019-04-06T07:24:23.651Z,81.80
2019-04-06T07:26:50.089Z,82.00
2019-04-06T07:29:18.402Z,81.60
2019-04-06T07:31:45.188Z,81.30
2019-04-06T07:34:11.700Z,81.20
2019-04-06T07:36:38.359Z,81.10
2019-04-06T07:39:05.167Z,81.20
2019-04-06T07:41:31.827Z,81.30
2019-04-06T07:43:58.251Z,81.00
2019-04-06T07:46:24.743Z,80.90
2019-04-06T07:48:51.243Z,80.50
2019-04-06T07:51:17.619Z,80.00
2019-04-06T07:53:44.033Z,80.50
2019-04-06T07:56:10.702Z,80.40
2019-04-06T07:58:47.851Z,80.10
2019-04-06T08:01:05.488Z,79.50
2019-04-06T08:03:31.865Z,79.70
2019-04-06T08:05:58.250Z,79.50
2019-04-06T08:08:24.667Z,79.40
2019-04-06T08:10:51.014Z,78.60
2019-04-06T08:13:17.413Z,78.30
2019-04-06T08:15:43.877Z,77.80
2019-04-06T08:18:10.391Z,76.90
2019-04-06T08:20:36.859Z,75.80
2019-04-06T08:23:03.368Z,75.10
2019-04-06T08:25:29.914Z,74.30
2019-04-06T08:27:56.306Z,74.10
2019-04-06T08:30:22.707Z,73.80
2019-04-06T08:32:49.203Z,72.70
2019-04-06T08:35:24.755Z,72.50
2019-04-06T08:37:44.038Z,72.00
2019-04-06T08:40:10.398Z,71.10
2019-04-06T08:42:36.885Z,70.20
2019-04-06T08:45:05.239Z,70.40
2019-04-06T08:47:31.893Z,69.10
2019-04-06T08:49:58.298Z,67.70
2019-04-06T08:52:24.772Z,67.20
2019-04-06T08:54:51.154Z,62.60
2019-04-06T08:57:17.549Z,58.40
2019-04-06T08:59:44.057Z,56.00
2019-04-06T09:02:10.451Z,54.40
2019-04-06T09:04:36.888Z,52.20
2019-04-06T09:07:03.294Z,53.10
2019-04-06T09:09:29.782Z,54.20
2019-04-06T09:11:56.475Z,53.10
2019-04-06T09:14:23.258Z,51.20
2019-04-06T09:16:49.913Z,49.90
2019-04-06T09:19:16.380Z,49.50
2019-04-06T09:21:42.865Z,48.60
2019-04-06T09:24:09.259Z,47.10
2019-04-06T09:26:35.707Z,46.20
2019-04-06T09:29:02.183Z,44.00
2019-04-06T09:31:28.708Z,45.70
2019-04-06T09:33:55.188Z,47.20
2019-04-06T09:36:21.898Z,47.30
2019-04-06T09:38:48.505Z,48.60
2019-04-06T09:41:15.168Z,47.20
2019-04-06T09:43:41.652Z,48.90
2019-04-06T09:46:25.001Z,47.80
2019-04-06T09:48:53.359Z,45.60
2019-04-06T09:51:27.628Z,44.60
2019-04-06T09:54:05.175Z,44.50
2019-04-06T09:56:44.330Z,44.20
2019-04-06T09:59:15.534Z,43.00
2019-04-06T10:02:07.333Z,44.00
2019-04-06T10:05:02.104Z,46.90
2019-04-06T10:07:48.536Z,46.50
2019-04-06T10:10:21.721Z,48.60
2019-04-06T10:12:53.379Z,47.30
2019-04-06T10:15:33.813Z,46.90
2019-04-06T10:18:02.228Z,46.40
2019-04-06T10:20:30.590Z,46.50
2019-04-06T10:23:15.900Z,44.40
2019-04-06T10:25:47.240Z,43.30
2019-04-06T10:28:19.628Z,41.70
2019-04-06T10:30:49.148Z,44.30
2019-04-06T10:33:34.204Z,45.70
2019-04-06T10:36:19.169Z,45.40
2019-04-06T10:38:50.260Z,46.10
2019-04-06T10:41:18.702Z,43.40
2019-04-06T10:44:03.775Z,43.20
2019-04-06T10:46:41.490Z,42.10
2019-04-06T10:49:26.604Z,41.00
2019-04-06T10:52:07.070Z,40.20
2019-04-06T10:54:52.315Z,40.00
2019-04-06T10:57:26.555Z,37.50
2019-04-06T11:00:06.998Z,37.20
2019-04-06T11:02:35.881Z,39.40
2019-04-06T11:05:17.486Z,39.60
2019-04-06T11:08:03.897Z,40.00
2019-04-06T11:10:32.322Z,39.60
2019-04-06T11:13:25.008Z,40.40
2019-04-06T11:16:08.531Z,41.20
2019-04-06T11:18:53.479Z,42.20
2019-04-06T11:21:33.888Z,43.30
2019-04-06T11:24:05.383Z,43.40
2019-04-06T11:26:46.519Z,43.60
2019-04-06T11:29:17.644Z,43.40
2019-04-06T11:32:05.302Z,44.50
2019-04-06T11:34:45.642Z,45.30
2019-04-06T11:37:31.887Z,45.40
2019-04-06T11:40:07.288Z,47.20
2019-04-06T11:42:35.792Z,45.90
2019-04-06T11:45:12.408Z,46.10
2019-04-06T11:47:43.545Z,44.90
2019-04-06T11:50:15.064Z,43.90
2019-04-06T11:52:49.028Z,44.40
2019-04-06T11:55:20.360Z,44.40
2019-04-06T11:57:48.752Z,44.10
2019-04-06T12:00:25.964Z,43.70
2019-04-06T12:02:50.290Z,43.90
2019-04-06T12:05:21.838Z,44.00
2019-04-06T12:08:06.996Z,43.00
2019-04-06T12:10:44.764Z,44.70
2019-04-06T12:13:15.795Z,45.40
2019-04-06T12:15:58.989Z,43.10
2019-04-06T12:18:42.742Z,44.50
2019-04-06T12:21:11.053Z,45.90
2019-04-06T12:23:42.232Z,45.90
2019-04-06T12:26:13.569Z,45.90
2019-04-06T12:28:47.925Z,46.20
2019-04-06T12:31:16.429Z,45.70
2019-04-06T12:34:01.580Z,44.80
2019-04-06T12:36:42.387Z,45.20
2019-04-06T12:39:27.850Z,45.60
2019-04-06T12:41:56.567Z,45.40
2019-04-06T12:44:37.363Z,47.00
2019-04-06T12:47:05.689Z,46.60
2019-04-06T12:49:34.120Z,46.70
2019-04-06T12:52:02.757Z,45.90
2019-04-06T12:54:43.208Z,46.70
2019-04-06T12:57:11.651Z,47.70
2019-04-06T12:59:40.029Z,47.30
2019-04-06T13:02:11.228Z,47.60
2019-04-06T13:04:56.077Z,46.70
2019-04-06T13:07:43.190Z,46.90
2019-04-06T13:10:20.638Z,47.00
2019-04-06T13:13:05.812Z,46.90
2019-04-06T13:15:36.878Z,46.30
2019-04-06T13:18:05.246Z,46.20
2019-04-06T13:20:36.350Z,45.70
2019-04-06T13:23:04.788Z,45.60
2019-04-06T13:25:42.862Z,45.70
2019-04-06T13:28:14.401Z,47.40
2019-04-06T13:30:43.027Z,47.30
2019-04-06T13:33:26.853Z,46.60
2019-04-06T13:36:08.463Z,47.10
2019-04-06T13:38:37.188Z,47.60
2019-04-06T13:41:22.893Z,47.30
2019-04-06T13:43:54.536Z,48.10
2019-04-06T13:46:23.903Z,49.00
2019-04-06T13:48:58.381Z,49.60
2019-04-06T13:51:26.687Z,49.90
2019-04-06T13:54:04.608Z,50.20
2019-04-06T13:56:51.657Z,50.20
2019-04-06T13:59:37.163Z,49.90
2019-04-06T14:02:14.802Z,48.80
2019-04-06T14:04:43.785Z,49.80
2019-04-06T14:07:21.749Z,50.30
2019-04-06T14:09:50.256Z,50.60
2019-04-06T14:12:35.339Z,51.10
2019-04-06T14:15:17.603Z,50.60
2019-04-06T14:17:51.920Z,50.60
2019-04-06T14:20:37.168Z,50.80
2019-04-06T14:23:08.359Z,50.80
2019-04-06T14:25:39.795Z,51.40
2019-04-06T14:28:25.346Z,51.20
2019-04-06T14:31:27.366Z,51.50
2019-04-06T14:34:04.847Z,51.20
2019-04-06T14:36:39.043Z,51.10
2019-04-06T14:39:07.441Z,51.20
2019-04-06T14:41:38.896Z,50.70
2019-04-06T14:44:13.356Z,51.20
2019-04-06T14:46:50.872Z,51.80
2019-04-06T14:49:31.693Z,51.40
2019-04-06T14:52:03.276Z,51.50
2019-04-06T14:54:34.901Z,51.60
2019-04-06T14:59:53.717Z,53.10
2019-04-06T15:02:29.616Z,53.10
2019-04-06T15:05:03.858Z,52.60
2019-04-06T15:07:35.221Z,53.10
2019-04-06T15:10:13.130Z,53.00
2019-04-06T15:12:41.650Z,53.20
2019-04-06T15:15:11.068Z,53.30
2019-04-06T15:17:54.127Z,53.30
2019-04-06T15:20:31.528Z,53.50
2019-04-06T15:23:11.988Z,53.80
2019-04-06T15:25:43.479Z,53.50
2019-04-06T15:28:24.327Z,53.80
2019-04-06T15:30:55.813Z,53.10
2019-04-06T15:33:42.205Z,53.60
2019-04-06T15:36:10.663Z,53.30
2019-04-06T15:38:54.295Z,53.30
2019-04-06T15:41:22.635Z,52.90
2019-04-06T15:44:04.116Z,53.20
2019-04-06T15:46:41.476Z,53.20
2019-04-06T15:49:13.691Z,53.50
2019-04-06T15:51:42.153Z,53.40
2019-04-06T15:54:10.642Z,53.50
2019-04-06T15:56:42.196Z,53.40
2019-04-06T15:59:10.631Z,53.50
2019-04-06T16:02:01.582Z,53.90
2019-04-06T16:04:30.671Z,53.90
2019-04-06T16:07:14.141Z,53.60
2019-04-06T16:09:45.709Z,54.00
2019-04-06T16:12:14.089Z,54.10
2019-04-06T16:14:58.329Z,54.20
2019-04-06T16:17:38.974Z,54.20
2019-04-06T16:20:11.489Z,54.20
2019-04-06T16:22:39.858Z,54.30
2019-04-06T16:25:10.740Z,54.50
2019-04-06T16:27:39.199Z,54.80
2019-04-06T16:30:08.243Z,55.20
2019-04-06T16:32:39.860Z,55.50
2019-04-06T16:35:14.203Z,55.60
2019-04-06T16:37:45.948Z,55.60
2019-04-06T16:40:20.490Z,55.10
2019-04-06T16:42:57.684Z,55.10
2019-04-06T16:45:28.815Z,55.10
2019-04-06T16:47:59.885Z,55.50
2019-04-06T16:50:36.888Z,56.00
2019-04-06T16:53:22.546Z,56.20
2019-04-06T16:55:50.980Z,56.20
2019-04-06T16:58:34.747Z,56.20
2019-04-06T17:01:03.006Z,56.60
2019-04-06T17:03:46.529Z,56.70
2019-04-06T17:06:17.622Z,57.20
2019-04-06T17:08:45.963Z,57.20
2019-04-06T17:11:20.777Z,57.30
2019-04-06T17:13:49.127Z,57.50
2019-04-06T17:16:20.253Z,57.80
2019-04-06T17:18:48.655Z,58.10
2019-04-06T17:21:27.139Z,58.50
2019-04-06T17:24:01.566Z,58.40
2019-04-06T17:26:39.015Z,58.60
2019-04-06T17:29:10.571Z,59.00
2019-04-06T17:31:51.368Z,59.50
2019-04-06T17:34:34.748Z,60.00
2019-04-06T17:37:09.143Z,60.20
2019-04-06T17:39:39.482Z,60.80
2019-04-06T17:42:12.170Z,61.00
2019-04-06T17:44:57.618Z,61.40
2019-04-06T17:47:26.035Z,61.70
2019-04-06T17:49:54.497Z,62.30
2019-04-06T17:52:35.067Z,62.70
2019-04-06T17:55:09.542Z,63.00
2019-04-06T17:57:50.113Z,63.40
2019-04-06T18:00:35.259Z,63.90
2019-04-06T18:03:15.474Z,64.10
2019-04-06T18:05:59.243Z,64.60
2019-04-06T18:08:30.591Z,64.90
2019-04-06T18:11:11.284Z,65.30
2019-04-06T18:13:39.594Z,65.70
2019-04-06T18:16:05.999Z,65.80
2019-04-06T18:18:32.614Z,66.10
2019-04-06T18:21:01.662Z,66.40
2019-04-06T18:23:28.209Z,66.00
2019-04-06T18:25:54.625Z,66.60
2019-04-06T18:28:42.465Z,66.70
2019-04-06T18:31:11.236Z,66.70
2019-04-06T18:33:38.035Z,66.90
2019-04-06T18:36:04.469Z,67.10
2019-04-06T18:38:35.872Z,67.10
2019-04-06T18:41:02.614Z,67.20
2019-04-06T18:43:29.472Z,67.40
2019-04-06T18:45:56.960Z,67.50
2019-04-06T18:48:23.644Z,67.80
2019-04-06T18:50:50.733Z,67.80
2019-04-06T18:53:17.434Z,67.80
2019-04-06T18:55:43.836Z,68.00
2019-04-06T18:58:12.707Z,68.10
2019-04-06T19:00:39.021Z,68.40
2019-04-06T19:03:14.116Z,68.50
2019-04-06T19:05:37.065Z,68.60
2019-04-06T19:08:03.680Z,68.20
2019-04-06T19:10:31.838Z,69.30
2019-04-06T19:12:58.701Z,69.30
2019-04-06T19:15:25.442Z,69.50
2019-04-06T19:17:52.085Z,70.00
2019-04-06T19:20:18.559Z,70.30
2019-04-06T19:22:45.211Z,70.00
2019-04-06T19:25:11.743Z,70.50
2019-04-06T19:27:38.475Z,71.00
2019-04-06T19:30:11.053Z,70.90
2019-04-06T19:32:37.697Z,71.40
2019-04-06T19:35:07.846Z,71.80
2019-04-06T19:37:34.314Z,71.80
2019-04-06T19:40:00.733Z,71.80
2019-04-06T19:42:27.176Z,72.00
2019-04-06T19:45:00.196Z,71.90
2019-04-06T19:47:26.709Z,72.00
2019-04-06T19:49:55.521Z,72.10
2019-04-06T19:52:21.856Z,72.00
2019-04-06T19:54:48.250Z,72.10
2019-04-06T19:57:14.780Z,72.20
2019-04-06T19:59:41.240Z,72.50
2019-04-06T20:02:07.771Z,72.30
2019-04-06T20:04:34.276Z,72.70
2019-04-06T20:07:00.717Z,72.70
2019-04-06T20:09:27.544Z,73.00
2019-04-06T20:12:04.180Z,73.40
2019-04-06T20:14:22.663Z,73.30
2019-04-06T20:16:49.584Z,73.40
2019-04-06T20:19:16.233Z,73.40
2019-04-06T20:21:42.776Z,73.50
2019-04-06T20:24:09.603Z,73.70
2019-04-06T20:26:37.174Z,73.70
2019-04-06T20:29:03.757Z,74.00
2019-04-06T20:31:30.510Z,74.10
2019-04-06T20:33:57.472Z,74.40
2019-04-06T20:36:24.061Z,74.40
2019-04-06T20:38:50.433Z,74.60
2019-04-06T20:41:16.883Z,74.80
2019-04-06T20:43:43.372Z,74.90
2019-04-06T20:46:09.912Z,75.20
2019-04-06T20:48:36.859Z,75.30
2019-04-06T20:51:03.447Z,75.40
2019-04-06T20:53:29.975Z,75.50
2019-04-06T20:55:56.470Z,75.90
2019-04-06T20:58:23.032Z,76.20
2019-04-06T21:00:52.917Z,76.60
2019-04-06T21:03:19.874Z,76.50
2019-04-06T21:05:46.797Z,76.70
2019-04-06T21:08:13.179Z,77.40
2019-04-06T21:10:40.813Z,77.60
2019-04-06T21:13:08.217Z,77.60
2019-04-06T21:15:35.058Z,77.90
2019-04-06T21:18:01.647Z,78.00
2019-04-06T21:20:28.590Z,78.10
2019-04-06T21:22:55.254Z,78.70
2019-04-06T21:25:22.197Z,78.60
2019-04-06T21:27:48.901Z,78.80
2019-04-06T21:30:15.881Z,78.80
2019-04-06T21:32:42.535Z,78.60
2019-04-06T21:35:09.242Z,78.60
2019-04-06T21:37:35.840Z,78.70
2019-04-06T21:40:03.867Z,78.60
2019-04-06T21:42:30.795Z,79.50
2019-04-06T21:44:57.255Z,79.50
2019-04-06T21:47:24.068Z,79.00
2019-04-06T21:49:51.211Z,79.20
2019-04-06T21:52:18.081Z,79.10
2019-04-06T21:54:44.629Z,79.30
2019-04-06T21:57:12.130Z,79.30
2019-04-06T21:59:39.272Z,79.10
2019-04-06T22:02:06.081Z,79.10
2019-04-06T22:04:32.718Z,79.10
2019-04-06T22:06:59.217Z,79.30
2019-04-06T22:09:25.588Z,79.50
2019-04-06T22:11:52.464Z,80.00
2019-04-06T22:14:19.500Z,79.70
2019-04-06T22:16:45.956Z,79.70
2019-04-06T22:19:12.352Z,79.50
2019-04-06T22:21:38.845Z,79.50
2019-04-06T22:24:05.549Z,79.40
2019-04-06T22:26:33.207Z,79.60
2019-04-06T22:28:59.550Z,79.30
2019-04-06T22:31:25.984Z,79.90
2019-04-06T22:33:52.800Z,80.20
2019-04-06T22:36:19.185Z,80.50
2019-04-06T22:38:45.551Z,80.40
2019-04-06T22:41:12.068Z,80.60
2019-04-06T22:43:38.907Z,80.40
2019-04-06T22:46:05.420Z,80.60
2019-04-06T22:48:31.778Z,80.90
2019-04-06T22:50:58.714Z,80.60
2019-04-06T22:53:25.556Z,81.10
2019-04-06T22:55:52.285Z,81.20
2019-04-06T22:58:18.793Z,80.30
2019-04-06T23:00:58.914Z,80.90
2019-04-06T23:03:27.435Z,81.50
2019-04-06T23:05:56.210Z,80.90
2019-04-06T23:08:23.476Z,81.00
2019-04-06T23:10:59.332Z,81.30
2019-04-06T23:13:26.769Z,81.70
2019-04-06T23:15:54.231Z,81.40
2019-04-06T23:18:20.932Z,81.80
2019-04-06T23:20:53.777Z,81.70
2019-04-06T23:23:20.907Z,81.60
2019-04-06T23:25:47.574Z,81.60
2019-04-06T23:28:14.610Z,82.00
2019-04-06T23:30:41.297Z,82.10
2019-04-06T23:33:08.221Z,82.30
2019-04-06T23:35:35.868Z,82.40
2019-04-06T23:38:02.252Z,82.60
2019-04-06T23:40:29.415Z,83.00
2019-04-06T23:42:56.547Z,82.70
2019-04-06T23:45:23.534Z,83.50
2019-04-06T23:47:50.150Z,83.00
2019-04-06T23:50:17.012Z,83.40
2019-04-06T23:52:43.504Z,83.20
2019-04-06T23:55:10.643Z,84.60
2019-04-06T23:57:37.278Z,83.90
